• Join FlightAware (Why Join?)
  • Login
  • US Flag 
03:54PM EDT


 

Airport Tracker/Info


-or-


 

Live Flight TrackerFlight Track Log ✈ N6045S ✈ 30-Jun-2013 ✈ KOQU - KDXR

Flight Track Log - Related Links

Times and Time Zones

All times are in EDT time to prevent confusion due to time zone crossing. See the N6045S flight status page for this flight to view local times or setup timezone preferences in your user account.

Time Position Orientation Groundspeed Altitude Reporting Facility
EDT Latitude Longitude Course Direction KTS MPH feet Rate Location/Type
04:14PM 41.5850 -71.4050 264° West 135 155 700  Level Boston Center
04:14PM 41.5664 -71.4219 214° Southwest 137 158 1,800 1,200 Climbing Boston Center
04:16PM 41.5498 -71.5020 255° West  Level Estimated
04:16PM 41.5967 -71.5436 255° West 187 215 4,100  Level Boston Center
04:18PM 41.6283 -71.6181 300° West 209 241 4,800 660 Climbing Boston Center
04:19PM 41.6974 -71.7332 264° West  Level FlightAware Approximate
04:19PM 41.6558 -71.6844 299° West 205 236 5,600  Level Boston Center
04:20PM 41.6875 -71.7478 304° West 203 234 6,500 1,080 Climbing Boston Center
04:21PM 41.7108 -71.8117 296° West 181 208 7,800 1,080 Climbing Boston Center
04:22PM 41.7322 -71.8781 293° West 184 212 8,700 780 Climbing Boston Center
04:23PM 41.7242 -71.9533 262° West 185 213 9,600 600 Climbing Boston Center
04:24PM 41.7161 -72.0092 259° West 190 219 9,900 120 Climbing Boston Center
04:25PM 41.7058 -72.0953 261° West 224 258 9,900  Level Boston Center
04:26PM 41.6936 -72.1789 259° West 233 268 9,900 -120 Level Boston Center
04:28PM 41.6625 -72.3539 257° West 242 278 9,700 -180 Descending Boston Center
04:29PM 41.6106 -72.4122 220° Southwest 242 278 9,400 -420 Descending Boston Center
04:30PM 41.5542 -72.4567 211° Southwest 246 283 8,900 -540 Descending Boston Center
04:31PM 41.4667 -72.5500 219° Southwest 235 270 8,000 -360 Descending New York TRACON
04:32PM 41.4000 -72.6000 209° Southwest 227 261 8,000  Level New York TRACON
04:33PM 41.3500 -72.6500 217° Southwest 231 266 8,000 -300 Level New York TRACON
04:34PM 41.3000 -72.7000 217° Southwest 239 275 7,400 -600 Descending New York TRACON
04:35PM 41.2833 -72.7667 252° West 234 269 6,900 -600 Descending New York TRACON
04:36PM 41.2500 -72.8667 246° West 226 260 6,300 -480 Descending New York TRACON
04:37PM 41.2333 -72.9333 252° West 229 264 6,000 -180 Descending New York TRACON
04:38PM 41.2000 -73.0167 242° Southwest 230 265 6,000 -120 Level New York TRACON
04:39PM 41.1833 -73.1000 255° West 236 272 5,800 -480 Descending New York TRACON
04:40PM 41.1833 -73.1833 270° West 236 272 5,100 -660 Descending New York TRACON
04:41PM 41.1833 -73.2667 270° West 227 261 4,500 -540 Descending New York TRACON
04:42PM 41.1833 -73.3500 270° West 220 253 4,100 -420 Descending New York TRACON
04:43PM 41.2000 -73.4333 285° West 225 259 3,700 -540 Descending New York TRACON
04:44PM 41.2167 -73.5000 288° West 226 260 3,100 -480 Descending New York TRACON
04:45PM 41.2500 -73.5833 298° West 216 249 2,800 -300 Descending New York TRACON
04:46PM 41.2667 -73.6500 288° West 194 223 2,500 -300 Descending New York TRACON
04:47PM 41.2833 -73.7167 288° West 200 230 2,200 -240 Descending New York TRACON
04:48PM 41.3167 -73.7000 21° North 205 236 2,100 -120 Descending New York TRACON